Overview Statistics Trail Chart Weather Telemetry Raw packets
 

This is the latest recevied weather packets stored in our database for station/object HP3ICC-22. If no packets are shown the sender has not sent any weather packets the latest 10 day(s).

<< 38 39 40 41 42 43 44 >>
Time Temp. Humidity Pressure Rain* Wind** Luminosity Snow
1777125443 11.67° C 81% 1015 hPa 0 mm - - -
1777125382 11.67° C 81% 1015 hPa 0 mm - - -
1777124242 11.67° C 82% 1014 hPa 0 mm - - -
1777124182 11.67° C 82% 1014 hPa 0 mm - - -
1777123042 10.56° C 86% 1013 hPa 0 mm - - -
1777122981 10.56° C 86% 1013 hPa 0 mm - - -
1777121841 10.56° C 89% 1014 hPa 0 mm - - -
1777121781 10.56° C 89% 1014 hPa 0 mm - - -
1777120641 8.33° C 89% 1014 hPa 0 mm - - -
1777120580 8.33° C 89% 1014 hPa 0 mm - - -
1777119440 8.89° C 74% 1013 hPa 0 mm - - -
1777119380 8.89° C 74% 1013 hPa 0 mm - - -
1777118240 8.89° C 74% 1014 hPa 0 mm - - -
1777118179 8.89° C 74% 1014 hPa 0 mm - - -
1777117039 8.33° C 89% 1014 hPa 0 mm - - -
1777116979 8.33° C 89% 1014 hPa 0 mm - - -
1777115838 8.89° C 74% 1013 hPa 0 mm - - -
1777115778 8.89° C 74% 1013 hPa 0 mm - - -
1777114637 7.78° C 89% 1014 hPa 0 mm - - -
1777114577 7.78° C 89% 1014 hPa 0 mm - - -
1777113437 8.33° C 89% 1014 hPa 0 mm - - -
1777113377 8.33° C 89% 1014 hPa 0 mm - - -
1777112237 8.89° C 74% 1013 hPa 0 mm - - -
1777112177 8.89° C 74% 1013 hPa 0 mm - - -
1777111036 7.78° C 89% 1013 hPa 0 mm - - -

* Rain latest hour (hover to see other rain measurements)
** Current wind speed in m/s (hover to see current wind gust speed)